sensor_id;sensor_type;location;lat;lon;timestamp;pressure;altitude;pressure_sealevel;temperature;humidity
44103;BME280;29769;42.178;24.742;2024-03-29T00:01:13;99292.09;;;12.43;62.46
44103;BME280;29769;42.178;24.742;2024-03-29T00:03:57;99294.94;;;12.36;63.80
44103;BME280;29769;42.178;24.742;2024-03-29T00:06:41;99298.59;;;12.32;64.16
44103;BME280;29769;42.178;24.742;2024-03-29T00:09:26;99297.72;;;12.31;64.02
44103;BME280;29769;42.178;24.742;2024-03-29T00:12:10;99293.41;;;12.29;64.68
44103;BME280;29769;42.178;24.742;2024-03-29T00:14:54;99294.41;;;12.25;65.54
44103;BME280;29769;42.178;24.742;2024-03-29T00:17:40;99286.53;;;12.23;65.80
44103;BME280;29769;42.178;24.742;2024-03-29T00:20:25;99293.53;;;12.24;66.51
44103;BME280;29769;42.178;24.742;2024-03-29T00:23:09;99293.56;;;12.23;68.11
44103;BME280;29769;42.178;24.742;2024-03-29T00:25:54;99302.66;;;12.13;69.56
44103;BME280;29769;42.178;24.742;2024-03-29T00:28:42;99290.53;;;12.06;71.51
44103;BME280;29769;42.178;24.742;2024-03-29T00:31:27;99293.97;;;12.09;72.58
44103;BME280;29769;42.178;24.742;2024-03-29T00:34:11;99300.03;;;12.13;72.18
44103;BME280;29769;42.178;24.742;2024-03-29T00:36:56;99299.06;;;12.15;70.33
44103;BME280;29769;42.178;24.742;2024-03-29T00:39:40;99308.31;;;12.30;68.56
44103;BME280;29769;42.178;24.742;2024-03-29T00:42:26;99306.00;;;12.18;68.98
44103;BME280;29769;42.178;24.742;2024-03-29T00:45:10;99305.22;;;11.83;72.07
44103;BME280;29769;42.178;24.742;2024-03-29T00:47:55;99307.59;;;11.92;71.29
44103;BME280;29769;42.178;24.742;2024-03-29T00:50:40;99303.94;;;11.98;70.78
44103;BME280;29769;42.178;24.742;2024-03-29T00:53:24;99294.41;;;11.94;71.12
44103;BME280;29769;42.178;24.742;2024-03-29T00:56:08;99291.03;;;11.87;73.41
44103;BME280;29769;42.178;24.742;2024-03-29T00:58:53;99292.13;;;11.80;72.47
44103;BME280;29769;42.178;24.742;2024-03-29T01:01:38;99291.91;;;12.20;67.64
44103;BME280;29769;42.178;24.742;2024-03-29T01:04:22;99283.22;;;12.46;65.57
44103;BME280;29769;42.178;24.742;2024-03-29T01:07:07;99283.31;;;12.72;63.03
44103;BME280;29769;42.178;24.742;2024-03-29T01:09:51;99286.09;;;12.96;61.43
44103;BME280;29769;42.178;24.742;2024-03-29T01:12:36;99283.94;;;13.08;60.54
44103;BME280;29769;42.178;24.742;2024-03-29T01:15:20;99293.44;;;12.86;62.20
44103;BME280;29769;42.178;24.742;2024-03-29T01:18:05;99301.97;;;12.37;65.45
44103;BME280;29769;42.178;24.742;2024-03-29T01:20:49;99301.94;;;11.74;69.18
44103;BME280;29769;42.178;24.742;2024-03-29T01:23:34;99308.84;;;11.44;71.37
44103;BME280;29769;42.178;24.742;2024-03-29T01:26:18;99310.44;;;11.49;70.86
44103;BME280;29769;42.178;24.742;2024-03-29T01:29:02;99310.63;;;11.42;71.85
44103;BME280;29769;42.178;24.742;2024-03-29T01:31:47;99317.66;;;11.41;72.99
44103;BME280;29769;42.178;24.742;2024-03-29T01:34:32;99319.03;;;11.57;73.27
44103;BME280;29769;42.178;24.742;2024-03-29T01:37:17;99314.88;;;11.83;71.22
44103;BME280;29769;42.178;24.742;2024-03-29T01:40:02;99308.25;;;12.00;70.40
44103;BME280;29769;42.178;24.742;2024-03-29T01:42:47;99318.81;;;12.00;70.25
44103;BME280;29769;42.178;24.742;2024-03-29T01:45:31;99318.25;;;11.89;71.45
44103;BME280;29769;42.178;24.742;2024-03-29T01:48:17;99314.00;;;11.84;72.35
44103;BME280;29769;42.178;24.742;2024-03-29T01:51:02;99321.38;;;11.68;73.96
44103;BME280;29769;42.178;24.742;2024-03-29T01:53:47;99331.47;;;11.51;75.41
44103;BME280;29769;42.178;24.742;2024-03-29T01:56:34;99347.66;;;11.36;77.10
44103;BME280;29769;42.178;24.742;2024-03-29T01:59:19;99353.34;;;11.18;78.70
44103;BME280;29769;42.178;24.742;2024-03-29T02:02:04;99358.22;;;10.97;80.16
44103;BME280;29769;42.178;24.742;2024-03-29T02:04:49;99363.88;;;10.78;82.21
44103;BME280;29769;42.178;24.742;2024-03-29T02:07:35;99363.19;;;10.69;82.67
44103;BME280;29769;42.178;24.742;2024-03-29T02:10:20;99367.50;;;10.72;81.48
44103;BME280;29769;42.178;24.742;2024-03-29T02:13:05;99334.63;;;10.53;81.21
44103;BME280;29769;42.178;24.742;2024-03-29T02:15:49;99379.69;;;10.78;80.07
44103;BME280;29769;42.178;24.742;2024-03-29T02:18:34;99374.41;;;10.79;79.93
44103;BME280;29769;42.178;24.742;2024-03-29T02:21:18;99372.34;;;10.93;78.56
44103;BME280;29769;42.178;24.742;2024-03-29T02:24:06;99367.63;;;11.07;77.70
44103;BME280;29769;42.178;24.742;2024-03-29T02:26:51;99360.44;;;11.15;77.88
44103;BME280;29769;42.178;24.742;2024-03-29T02:29:37;99346.19;;;11.23;78.14
44103;BME280;29769;42.178;24.742;2024-03-29T02:32:21;99363.81;;;11.21;78.76
44103;BME280;29769;42.178;24.742;2024-03-29T02:35:06;99378.88;;;11.14;79.58
44103;BME280;29769;42.178;24.742;2024-03-29T02:37:51;99391.78;;;11.26;79.28
44103;BME280;29769;42.178;24.742;2024-03-29T02:40:35;99403.91;;;11.32;79.28
44103;BME280;29769;42.178;24.742;2024-03-29T02:43:20;99392.50;;;11.31;79.09
44103;BME280;29769;42.178;24.742;2024-03-29T02:46:04;99407.06;;;11.47;77.66
44103;BME280;29769;42.178;24.742;2024-03-29T02:48:48;99406.97;;;11.52;76.90
44103;BME280;29769;42.178;24.742;2024-03-29T02:51:33;99417.16;;;11.67;75.02
44103;BME280;29769;42.178;24.742;2024-03-29T02:54:17;99417.88;;;11.75;73.48
44103;BME280;29769;42.178;24.742;2024-03-29T02:57:02;99415.97;;;11.80;72.61
44103;BME280;29769;42.178;24.742;2024-03-29T02:59:46;99414.03;;;11.88;72.66
44103;BME280;29769;42.178;24.742;2024-03-29T03:02:30;99426.22;;;11.92;73.10
44103;BME280;29769;42.178;24.742;2024-03-29T03:05:15;99419.81;;;12.02;73.23
44103;BME280;29769;42.178;24.742;2024-03-29T03:07:59;99417.94;;;12.06;73.71
44103;BME280;29769;42.178;24.742;2024-03-29T03:11:03;99384.88;;;11.94;73.51
44103;BME280;29769;42.178;24.742;2024-03-29T03:13:48;99431.50;;;12.26;73.72
44103;BME280;29769;42.178;24.742;2024-03-29T03:16:32;99439.47;;;12.23;74.72
44103;BME280;29769;42.178;24.742;2024-03-29T03:19:17;99450.25;;;12.14;76.12
44103;BME280;29769;42.178;24.742;2024-03-29T03:22:02;99454.03;;;12.04;77.55
44103;BME280;29769;42.178;24.742;2024-03-29T03:24:46;99461.22;;;11.99;78.39
44103;BME280;29769;42.178;24.742;2024-03-29T03:27:31;99467.41;;;11.96;79.18
44103;BME280;29769;42.178;24.742;2024-03-29T03:30:16;99470.88;;;11.98;79.41
44103;BME280;29769;42.178;24.742;2024-03-29T03:33:00;99475.81;;;12.12;78.75
44103;BME280;29769;42.178;24.742;2024-03-29T03:35:45;99472.84;;;12.24;77.75
44103;BME280;29769;42.178;24.742;2024-03-29T03:38:30;99470.22;;;12.24;77.59
44103;BME280;29769;42.178;24.742;2024-03-29T03:41:15;99493.09;;;12.24;77.14
44103;BME280;29769;42.178;24.742;2024-03-29T03:43:59;99495.09;;;12.14;77.40
44103;BME280;29769;42.178;24.742;2024-03-29T03:46:44;99491.63;;;12.12;76.53
44103;BME280;29769;42.178;24.742;2024-03-29T03:49:28;99485.53;;;12.44;72.66
44103;BME280;29769;42.178;24.742;2024-03-29T03:52:13;99491.59;;;12.80;69.18
44103;BME280;29769;42.178;24.742;2024-03-29T03:54:57;99494.25;;;13.12;66.33
44103;BME280;29769;42.178;24.742;2024-03-29T03:57:42;99486.75;;;13.26;64.55
44103;BME280;29769;42.178;24.742;2024-03-29T04:00:26;99458.59;;;13.55;62.21
44103;BME280;29769;42.178;24.742;2024-03-29T04:03:10;99470.38;;;13.72;61.17
44103;BME280;29769;42.178;24.742;2024-03-29T04:05:55;99480.16;;;13.70;61.37
44103;BME280;29769;42.178;24.742;2024-03-29T04:08:40;99518.72;;;13.48;63.40
44103;BME280;29769;42.178;24.742;2024-03-29T04:11:24;99514.75;;;13.33;64.58
44103;BME280;29769;42.178;24.742;2024-03-29T04:14:10;99526.22;;;13.32;63.84
44103;BME280;29769;42.178;24.742;2024-03-29T04:16:54;99538.03;;;13.50;63.00
44103;BME280;29769;42.178;24.742;2024-03-29T04:19:38;99545.88;;;13.53;62.94
44103;BME280;29769;42.178;24.742;2024-03-29T04:22:23;99547.69;;;13.51;63.75
44103;BME280;29769;42.178;24.742;2024-03-29T04:25:08;99544.53;;;13.39;65.90
44103;BME280;29769;42.178;24.742;2024-03-29T04:27:52;99538.19;;;13.15;69.02
44103;BME280;29769;42.178;24.742;2024-03-29T04:30:37;99535.91;;;13.00;69.86
44103;BME280;29769;42.178;24.742;2024-03-29T04:33:22;99556.25;;;12.96;70.32
44103;BME280;29769;42.178;24.742;2024-03-29T04:36:06;99545.44;;;13.07;69.10
44103;BME280;29769;42.178;24.742;2024-03-29T04:38:51;99561.28;;;13.05;69.43
44103;BME280;29769;42.178;24.742;2024-03-29T04:41:36;99552.22;;;13.17;68.29
44103;BME280;29769;42.178;24.742;2024-03-29T04:44:24;99562.91;;;13.12;69.33
44103;BME280;29769;42.178;24.742;2024-03-29T04:47:09;99568.31;;;13.06;70.08
44103;BME280;29769;42.178;24.742;2024-03-29T04:49:54;99563.91;;;13.07;69.62
44103;BME280;29769;42.178;24.742;2024-03-29T04:52:38;99567.06;;;13.21;68.02
44103;BME280;29769;42.178;24.742;2024-03-29T04:55:23;99573.50;;;13.11;69.08
44103;BME280;29769;42.178;24.742;2024-03-29T04:58:07;99557.44;;;13.18;69.51
44103;BME280;29769;42.178;24.742;2024-03-29T05:00:52;99565.81;;;13.34;67.98
44103;BME280;29769;42.178;24.742;2024-03-29T05:03:36;99574.97;;;13.52;66.89
44103;BME280;29769;42.178;24.742;2024-03-29T05:06:21;99568.94;;;13.48;67.79
44103;BME280;29769;42.178;24.742;2024-03-29T05:09:05;99570.25;;;13.32;70.76
44103;BME280;29769;42.178;24.742;2024-03-29T05:11:50;99567.59;;;13.00;74.76
44103;BME280;29769;42.178;24.742;2024-03-29T05:14:35;99571.63;;;13.14;72.89
44103;BME280;29769;42.178;24.742;2024-03-29T05:17:20;99577.13;;;13.39;72.05
44103;BME280;29769;42.178;24.742;2024-03-29T05:20:09;99592.78;;;14.04;66.87
44103;BME280;29769;42.178;24.742;2024-03-29T05:22:54;99584.50;;;14.44;62.75
44103;BME280;29769;42.178;24.742;2024-03-29T05:25:38;99588.00;;;14.97;59.17
44103;BME280;29769;42.178;24.742;2024-03-29T05:28:23;99594.13;;;15.22;59.04
44103;BME280;29769;42.178;24.742;2024-03-29T05:31:14;99601.94;;;15.51;57.64
44103;BME280;29769;42.178;24.742;2024-03-29T05:33:59;99594.22;;;15.69;55.89
44103;BME280;29769;42.178;24.742;2024-03-29T05:36:45;99604.00;;;15.90;56.60
44103;BME280;29769;42.178;24.742;2024-03-29T05:39:29;99578.50;;;15.87;56.42
44103;BME280;29769;42.178;24.742;2024-03-29T05:42:14;99585.25;;;16.18;56.22
44103;BME280;29769;42.178;24.742;2024-03-29T05:44:58;99610.81;;;16.20;55.85
44103;BME280;29769;42.178;24.742;2024-03-29T05:47:43;99607.66;;;16.32;55.54
44103;BME280;29769;42.178;24.742;2024-03-29T05:50:27;99618.03;;;16.38;55.55
44103;BME280;29769;42.178;24.742;2024-03-29T05:53:11;99618.28;;;16.54;55.70
44103;BME280;29769;42.178;24.742;2024-03-29T05:55:56;99605.22;;;16.71;54.86
44103;BME280;29769;42.178;24.742;2024-03-29T05:58:40;99627.97;;;17.19;55.01
44103;BME280;29769;42.178;24.742;2024-03-29T06:01:24;99622.53;;;17.42;52.92
44103;BME280;29769;42.178;24.742;2024-03-29T06:04:09;99622.72;;;17.58;50.52
44103;BME280;29769;42.178;24.742;2024-03-29T06:07:01;99622.06;;;17.92;49.24
44103;BME280;29769;42.178;24.742;2024-03-29T06:09:46;99622.50;;;17.83;49.63
44103;BME280;29769;42.178;24.742;2024-03-29T06:12:33;99608.81;;;18.09;47.96
44103;BME280;29769;42.178;24.742;2024-03-29T06:15:19;99636.53;;;18.42;46.88
44103;BME280;29769;42.178;24.742;2024-03-29T06:18:22;99632.88;;;18.81;46.30
44103;BME280;29769;42.178;24.742;2024-03-29T06:21:07;99639.47;;;18.91;44.87
44103;BME280;29769;42.178;24.742;2024-03-29T06:23:52;99637.06;;;19.21;44.67
44103;BME280;29769;42.178;24.742;2024-03-29T06:26:36;99638.78;;;19.39;42.95
44103;BME280;29769;42.178;24.742;2024-03-29T06:29:21;99618.47;;;19.19;42.02
44103;BME280;29769;42.178;24.742;2024-03-29T06:32:05;99645.25;;;19.52;41.87
44103;BME280;29769;42.178;24.742;2024-03-29T06:34:50;99653.03;;;19.89;42.13
44103;BME280;29769;42.178;24.742;2024-03-29T06:37:34;99645.75;;;19.76;40.58
44103;BME280;29769;42.178;24.742;2024-03-29T06:40:18;99637.28;;;19.68;41.64
44103;BME280;29769;42.178;24.742;2024-03-29T06:43:03;99658.81;;;20.13;41.84
44103;BME280;29769;42.178;24.742;2024-03-29T06:45:48;99628.63;;;20.60;40.08
44103;BME280;29769;42.178;24.742;2024-03-29T06:48:33;99632.66;;;20.82;40.22
44103;BME280;29769;42.178;24.742;2024-03-29T06:51:17;99670.22;;;20.95;40.00
44103;BME280;29769;42.178;24.742;2024-03-29T06:54:05;99644.16;;;20.37;40.00
44103;BME280;29769;42.178;24.742;2024-03-29T06:56:50;99637.56;;;20.27;39.08
44103;BME280;29769;42.178;24.742;2024-03-29T06:59:34;99656.03;;;20.32;39.32
44103;BME280;29769;42.178;24.742;2024-03-29T07:02:19;99683.19;;;20.56;40.66
44103;BME280;29769;42.178;24.742;2024-03-29T07:05:04;99651.84;;;20.26;39.41
44103;BME280;29769;42.178;24.742;2024-03-29T07:07:52;99672.84;;;20.65;38.24
44103;BME280;29769;42.178;24.742;2024-03-29T07:10:38;99676.00;;;21.19;38.46
44103;BME280;29769;42.178;24.742;2024-03-29T07:13:22;99675.69;;;20.94;38.95
44103;BME280;29769;42.178;24.742;2024-03-29T07:16:07;99685.84;;;21.03;39.82
44103;BME280;29769;42.178;24.742;2024-03-29T07:18:51;99664.69;;;21.14;38.14
44103;BME280;29769;42.178;24.742;2024-03-29T07:21:36;99677.91;;;21.01;37.97
44103;BME280;29769;42.178;24.742;2024-03-29T07:24:20;99677.44;;;21.24;37.62
44103;BME280;29769;42.178;24.742;2024-03-29T07:27:05;99691.03;;;21.65;38.72
44103;BME280;29769;42.178;24.742;2024-03-29T07:29:49;99695.53;;;21.65;37.11
44103;BME280;29769;42.178;24.742;2024-03-29T07:32:33;99676.66;;;21.96;37.81
44103;BME280;29769;42.178;24.742;2024-03-29T07:35:18;99687.28;;;22.12;36.35
44103;BME280;29769;42.178;24.742;2024-03-29T07:38:03;99687.63;;;21.92;36.51
44103;BME280;29769;42.178;24.742;2024-03-29T07:40:48;99685.44;;;22.27;36.09
44103;BME280;29769;42.178;24.742;2024-03-29T07:44:06;99703.84;;;22.88;36.51
44103;BME280;29769;42.178;24.742;2024-03-29T07:46:45;99697.97;;;23.22;35.15
44103;BME280;29769;42.178;24.742;2024-03-29T07:49:31;99708.91;;;23.19;34.88
44103;BME280;29769;42.178;24.742;2024-03-29T07:52:15;99697.09;;;22.95;34.83
44103;BME280;29769;42.178;24.742;2024-03-29T07:55:01;99713.19;;;22.95;34.96
44103;BME280;29769;42.178;24.742;2024-03-29T07:57:45;99712.88;;;23.26;34.91
44103;BME280;29769;42.178;24.742;2024-03-29T08:00:32;99707.97;;;23.72;34.62
44103;BME280;29769;42.178;24.742;2024-03-29T08:03:17;99706.69;;;23.26;34.90
44103;BME280;29769;42.178;24.742;2024-03-29T08:06:02;99700.38;;;23.66;33.85
44103;BME280;29769;42.178;24.742;2024-03-29T08:08:50;99702.41;;;23.36;33.59
44103;BME280;29769;42.178;24.742;2024-03-29T08:11:38;99709.41;;;23.38;34.72
44103;BME280;29769;42.178;24.742;2024-03-29T08:14:22;99699.03;;;23.59;33.36
44103;BME280;29769;42.178;24.742;2024-03-29T08:17:10;99696.28;;;23.73;33.83
44103;BME280;29769;42.178;24.742;2024-03-29T08:19:55;99698.22;;;24.47;32.89
44103;BME280;29769;42.178;24.742;2024-03-29T08:22:40;99692.94;;;24.08;32.91
44103;BME280;29769;42.178;24.742;2024-03-29T08:25:24;99692.84;;;24.22;33.32
44103;BME280;29769;42.178;24.742;2024-03-29T08:28:11;99707.84;;;24.62;32.69
44103;BME280;29769;42.178;24.742;2024-03-29T08:31:00;99717.69;;;24.38;32.60
44103;BME280;29769;42.178;24.742;2024-03-29T08:33:46;99703.91;;;24.92;31.98
44103;BME280;29769;42.178;24.742;2024-03-29T08:36:31;99724.25;;;24.96;32.27
44103;BME280;29769;42.178;24.742;2024-03-29T08:39:16;99704.88;;;25.62;32.12
44103;BME280;29769;42.178;24.742;2024-03-29T08:42:01;99707.75;;;25.00;31.43
44103;BME280;29769;42.178;24.742;2024-03-29T08:44:50;99717.16;;;25.18;31.95
44103;BME280;29769;42.178;24.742;2024-03-29T08:47:35;99710.94;;;25.53;31.44
44103;BME280;29769;42.178;24.742;2024-03-29T08:50:20;99709.84;;;26.12;31.44
44103;BME280;29769;42.178;24.742;2024-03-29T08:53:04;99707.09;;;26.36;30.32
44103;BME280;29769;42.178;24.742;2024-03-29T08:55:49;99712.13;;;26.52;30.59
44103;BME280;29769;42.178;24.742;2024-03-29T08:58:34;99704.81;;;26.08;30.33
44103;BME280;29769;42.178;24.742;2024-03-29T09:01:18;99708.91;;;26.02;30.17
44103;BME280;29769;42.178;24.742;2024-03-29T09:04:03;99689.94;;;26.37;30.09
44103;BME280;29769;42.178;24.742;2024-03-29T09:06:51;99714.66;;;26.76;30.02
44103;BME280;29769;42.178;24.742;2024-03-29T09:09:37;99691.53;;;27.16;29.75
44103;BME280;29769;42.178;24.742;2024-03-29T09:12:25;99698.50;;;27.30;29.10
44103;BME280;29769;42.178;24.742;2024-03-29T09:15:10;99691.94;;;27.32;28.07
44103;BME280;29769;42.178;24.742;2024-03-29T09:17:58;99694.53;;;27.66;28.85
44103;BME280;29769;42.178;24.742;2024-03-29T09:20:55;99693.19;;;27.81;27.55
44103;BME280;29769;42.178;24.742;2024-03-29T09:23:40;99685.25;;;28.30;28.01
44103;BME280;29769;42.178;24.742;2024-03-29T09:26:26;99690.97;;;28.37;27.85
44103;BME280;29769;42.178;24.742;2024-03-29T09:29:10;99696.47;;;28.56;26.48
44103;BME280;29769;42.178;24.742;2024-03-29T09:31:57;99691.44;;;28.82;26.14
44103;BME280;29769;42.178;24.742;2024-03-29T09:34:41;99680.78;;;29.77;26.11
44103;BME280;29769;42.178;24.742;2024-03-29T09:37:26;99666.97;;;29.80;25.60
44103;BME280;29769;42.178;24.742;2024-03-29T09:40:11;99683.47;;;30.06;24.96
44103;BME280;29769;42.178;24.742;2024-03-29T09:42:59;99691.84;;;30.59;24.24
44103;BME280;29769;42.178;24.742;2024-03-29T09:45:47;99674.63;;;30.77;23.44
44103;BME280;29769;42.178;24.742;2024-03-29T09:48:32;99668.81;;;30.90;23.19
44103;BME280;29769;42.178;24.742;2024-03-29T09:51:21;99666.06;;;31.70;22.31
44103;BME280;29769;42.178;24.742;2024-03-29T09:54:06;99658.53;;;31.90;22.04
44103;BME280;29769;42.178;24.742;2024-03-29T09:56:53;99648.50;;;32.84;22.13
44103;BME280;29769;42.178;24.742;2024-03-29T09:59:38;99666.56;;;31.66;23.01
44103;BME280;29769;42.178;24.742;2024-03-29T10:02:26;99657.63;;;33.49;21.32
44103;BME280;29769;42.178;24.742;2024-03-29T10:05:12;99653.38;;;33.63;20.79
44103;BME280;29769;42.178;24.742;2024-03-29T10:07:57;99647.69;;;33.08;20.67
44103;BME280;29769;42.178;24.742;2024-03-29T10:10:49;99640.78;;;33.38;20.98
44103;BME280;29769;42.178;24.742;2024-03-29T10:13:34;99645.38;;;33.78;19.81
44103;BME280;29769;42.178;24.742;2024-03-29T10:16:19;99649.28;;;35.70;19.27
44103;BME280;29769;42.178;24.742;2024-03-29T10:19:05;99655.00;;;37.43;17.31
44103;BME280;29769;42.178;24.742;2024-03-29T10:21:52;99650.06;;;37.81;16.92
44103;BME280;29769;42.178;24.742;2024-03-29T10:24:37;99639.22;;;38.28;16.38
44103;BME280;29769;42.178;24.742;2024-03-29T10:27:21;99643.59;;;38.51;16.59
44103;BME280;29769;42.178;24.742;2024-03-29T10:30:09;99623.06;;;38.94;16.09
44103;BME280;29769;42.178;24.742;2024-03-29T10:32:57;99626.75;;;39.34;16.37
44103;BME280;29769;42.178;24.742;2024-03-29T10:35:42;99617.91;;;39.52;16.53
44103;BME280;29769;42.178;24.742;2024-03-29T10:38:27;99611.22;;;41.27;15.10
44103;BME280;29769;42.178;24.742;2024-03-29T10:41:12;99608.25;;;41.60;14.75
44103;BME280;29769;42.178;24.742;2024-03-29T10:43:57;99595.34;;;41.23;14.55
44103;BME280;29769;42.178;24.742;2024-03-29T10:46:42;99585.97;;;40.93;14.59
44103;BME280;29769;42.178;24.742;2024-03-29T10:49:27;99587.19;;;41.84;14.37
44103;BME280;29769;42.178;24.742;2024-03-29T10:52:13;99583.56;;;43.11;13.73
44103;BME280;29769;42.178;24.742;2024-03-29T10:55:01;99576.72;;;43.90;12.90
44103;BME280;29769;42.178;24.742;2024-03-29T10:57:46;99566.97;;;41.90;14.05
44103;BME280;29769;42.178;24.742;2024-03-29T11:00:32;99560.75;;;42.97;13.36
44103;BME280;29769;42.178;24.742;2024-03-29T11:06:19;99539.41;;;37.25;16.74
44103;BME280;29769;42.178;24.742;2024-03-29T11:09:08;99545.81;;;37.94;16.86
44103;BME280;29769;42.178;24.742;2024-03-29T11:11:55;99550.69;;;40.19;15.60
44103;BME280;29769;42.178;24.742;2024-03-29T11:14:42;99550.47;;;41.03;14.86
44103;BME280;29769;42.178;24.742;2024-03-29T11:17:28;99541.94;;;41.11;14.60
44103;BME280;29769;42.178;24.742;2024-03-29T11:20:13;99544.94;;;42.75;13.38
44103;BME280;29769;42.178;24.742;2024-03-29T11:23:11;99543.53;;;44.07;12.98
44103;BME280;29769;42.178;24.742;2024-03-29T11:25:57;99540.69;;;45.10;11.76
44103;BME280;29769;42.178;24.742;2024-03-29T11:28:50;99542.63;;;45.09;11.81
44103;BME280;29769;42.178;24.742;2024-03-29T11:31:37;99542.28;;;44.78;11.94
44103;BME280;29769;42.178;24.742;2024-03-29T11:34:22;99542.00;;;45.07;11.61
44103;BME280;29769;42.178;24.742;2024-03-29T11:37:07;99534.88;;;44.03;12.13
44103;BME280;29769;42.178;24.742;2024-03-29T11:39:54;99533.41;;;44.64;11.72
44103;BME280;29769;42.178;24.742;2024-03-29T11:42:46;99530.91;;;45.74;11.55
44103;BME280;29769;42.178;24.742;2024-03-29T11:45:31;99534.47;;;44.75;11.01
44103;BME280;29769;42.178;24.742;2024-03-29T11:48:17;99537.66;;;44.55;11.80
44103;BME280;29769;42.178;24.742;2024-03-29T11:51:07;99533.69;;;45.07;11.86
44103;BME280;29769;42.178;24.742;2024-03-29T11:53:56;99536.19;;;45.76;11.17
44103;BME280;29769;42.178;24.742;2024-03-29T11:56:44;99533.22;;;46.59;11.12
44103;BME280;29769;42.178;24.742;2024-03-29T11:59:29;99534.94;;;46.65;10.88
44103;BME280;29769;42.178;24.742;2024-03-29T12:02:13;99532.25;;;46.75;11.31
44103;BME280;29769;42.178;24.742;2024-03-29T12:05:05;99525.63;;;46.81;11.04
44103;BME280;29769;42.178;24.742;2024-03-29T12:07:50;99527.78;;;46.96;10.70
44103;BME280;29769;42.178;24.742;2024-03-29T12:10:36;99523.16;;;45.76;11.40
44103;BME280;29769;42.178;24.742;2024-03-29T12:13:21;99514.13;;;45.47;11.66
44103;BME280;29769;42.178;24.742;2024-03-29T12:16:05;99514.25;;;45.07;11.75
44103;BME280;29769;42.178;24.742;2024-03-29T12:18:50;99506.63;;;44.86;11.62
44103;BME280;29769;42.178;24.742;2024-03-29T12:21:35;99506.16;;;43.16;12.50
44103;BME280;29769;42.178;24.742;2024-03-29T12:24:20;99505.81;;;44.29;11.81
44103;BME280;29769;42.178;24.742;2024-03-29T12:27:05;99494.56;;;44.64;11.45
44103;BME280;29769;42.178;24.742;2024-03-29T12:29:50;99490.66;;;44.93;11.69
44103;BME280;29769;42.178;24.742;2024-03-29T12:32:35;99494.78;;;44.34;11.62
44103;BME280;29769;42.178;24.742;2024-03-29T12:35:20;99498.56;;;44.85;12.00
44103;BME280;29769;42.178;24.742;2024-03-29T12:38:05;99498.63;;;42.52;12.81
44103;BME280;29769;42.178;24.742;2024-03-29T12:40:53;99496.97;;;41.96;13.22
44103;BME280;29769;42.178;24.742;2024-03-29T12:43:39;99490.03;;;41.69;13.39
44103;BME280;29769;42.178;24.742;2024-03-29T12:46:24;99491.28;;;42.09;13.31
44103;BME280;29769;42.178;24.742;2024-03-29T12:49:10;99494.38;;;42.49;13.31
44103;BME280;29769;42.178;24.742;2024-03-29T12:51:57;99492.16;;;42.88;13.00
44103;BME280;29769;42.178;24.742;2024-03-29T12:54:42;99498.59;;;41.86;13.32
44103;BME280;29769;42.178;24.742;2024-03-29T12:57:26;99494.84;;;39.59;14.08
44103;BME280;29769;42.178;24.742;2024-03-29T13:00:11;99498.75;;;40.16;14.26
44103;BME280;29769;42.178;24.742;2024-03-29T13:02:55;99492.97;;;40.75;13.71
44103;BME280;29769;42.178;24.742;2024-03-29T13:05:40;99486.13;;;41.34;13.73
44103;BME280;29769;42.178;24.742;2024-03-29T13:08:26;99491.31;;;41.91;13.44
44103;BME280;29769;42.178;24.742;2024-03-29T13:11:11;99485.06;;;38.51;14.43
44103;BME280;29769;42.178;24.742;2024-03-29T13:13:55;99489.25;;;37.10;15.75
44103;BME280;29769;42.178;24.742;2024-03-29T13:16:40;99503.41;;;38.44;14.84
44103;BME280;29769;42.178;24.742;2024-03-29T13:19:25;99492.75;;;39.61;14.44
44103;BME280;29769;42.178;24.742;2024-03-29T13:22:09;99492.09;;;40.36;13.86
44103;BME280;29769;42.178;24.742;2024-03-29T13:24:54;99494.19;;;41.10;13.52
44103;BME280;29769;42.178;24.742;2024-03-29T13:27:39;99492.00;;;41.19;13.35
44103;BME280;29769;42.178;24.742;2024-03-29T13:30:24;99493.19;;;40.98;13.69
44103;BME280;29769;42.178;24.742;2024-03-29T13:33:09;99485.56;;;40.94;13.99
44103;BME280;29769;42.178;24.742;2024-03-29T13:35:54;99492.19;;;41.42;13.42
44103;BME280;29769;42.178;24.742;2024-03-29T13:38:41;99478.97;;;39.61;14.33
44103;BME280;29769;42.178;24.742;2024-03-29T13:41:25;99481.69;;;40.38;14.06
44103;BME280;29769;42.178;24.742;2024-03-29T13:44:10;99483.06;;;40.54;14.10
44103;BME280;29769;42.178;24.742;2024-03-29T13:46:54;99484.91;;;39.25;14.64
44103;BME280;29769;42.178;24.742;2024-03-29T13:49:40;99476.31;;;37.25;15.81
44103;BME280;29769;42.178;24.742;2024-03-29T13:52:24;99493.19;;;38.25;15.82
44103;BME280;29769;42.178;24.742;2024-03-29T13:55:08;99480.69;;;38.96;15.33
44103;BME280;29769;42.178;24.742;2024-03-29T13:57:53;99482.59;;;39.29;15.10
44103;BME280;29769;42.178;24.742;2024-03-29T14:00:39;99480.47;;;38.98;15.54
44103;BME280;29769;42.178;24.742;2024-03-29T14:03:24;99488.94;;;39.55;15.28
44103;BME280;29769;42.178;24.742;2024-03-29T14:06:09;99476.63;;;39.78;14.94
44103;BME280;29769;42.178;24.742;2024-03-29T14:08:55;99477.09;;;38.22;15.73
44103;BME280;29769;42.178;24.742;2024-03-29T14:11:39;99488.66;;;37.14;16.72
44103;BME280;29769;42.178;24.742;2024-03-29T14:14:24;99481.16;;;36.08;17.09
44103;BME280;29769;42.178;24.742;2024-03-29T14:17:09;99482.69;;;35.67;17.05
44103;BME280;29769;42.178;24.742;2024-03-29T14:19:53;99476.09;;;35.47;17.21
44103;BME280;29769;42.178;24.742;2024-03-29T14:22:37;99470.91;;;35.52;17.78
44103;BME280;29769;42.178;24.742;2024-03-29T14:25:23;99477.41;;;35.80;17.52
44103;BME280;29769;42.178;24.742;2024-03-29T14:28:07;99472.25;;;36.36;17.28